Time,TemperatureF,DewpointF,PressureIn,WindDirection,WindDirectionDegrees,WindSpeedMPH,WindSpeedGustMPH,Humidity,HourlyPrecipIn,Conditions,Clouds,dailyrainin,SoftwareType,DateUTC
2013-05-03 00:13:00,53.8,36.1,30.35,NE,45,3.2,-999.0,51,-99.99,,,0.00,Acu-Link.com,2013-05-03 04:13:00,
2013-05-03 00:29:00,53.4,36.2,30.35,NNE,22,3.7,-999.0,52,-99.99,,,0.00,Acu-Link.com,2013-05-03 04:29:00,
2013-05-03 00:44:00,52.9,36.2,30.35,NE,45,1.7,-999.0,53,-99.99,,,0.00,Acu-Link.com,2013-05-03 04:44:00,
2013-05-03 00:59:00,52.7,36.5,30.35,NNE,22,1.7,-999.0,54,-99.99,,,0.00,Acu-Link.com,2013-05-03 04:59:00,
2013-05-03 01:15:00,52.7,36.5,30.35,NE,45,3.2,-999.0,54,-99.99,,,0.00,Acu-Link.com,2013-05-03 05:15:00,
2013-05-03 01:30:00,52.7,36.5,30.36,NNE,22,3.2,-999.0,54,-99.99,,,0.00,Acu-Link.com,2013-05-03 05:30:00,
2013-05-03 01:45:00,52.7,36.1,30.36,NE,45,4.7,-999.0,53,-99.99,,,0.00,Acu-Link.com,2013-05-03 05:45:00,
2013-05-03 02:01:00,52.5,36.3,30.36,NE,45,3.2,-999.0,54,-99.99,,,0.00,Acu-Link.com,2013-05-03 06:01:00,
2013-05-03 02:16:00,52.2,36.5,30.35,NE,45,4.2,-999.0,55,-99.99,,,0.00,Acu-Link.com,2013-05-03 06:16:00,
2013-05-03 02:31:00,51.6,36.4,30.35,East,90,3.2,-999.0,56,-99.99,,,0.00,Acu-Link.com,2013-05-03 06:31:00,
2013-05-03 02:46:00,50.9,36.2,30.35,North,0,2.7,-999.0,57,-99.99,,,0.00,Acu-Link.com,2013-05-03 06:46:00,
2013-05-03 03:02:00,50.7,36.5,30.35,NNE,22,2.7,-999.0,58,-99.99,,,0.00,Acu-Link.com,2013-05-03 07:02:00,
2013-05-03 03:17:00,50.2,36.9,30.35,NE,45,6.3,-999.0,60,-99.99,,,0.00,Acu-Link.com,2013-05-03 07:17:00,
2013-05-03 03:32:00,49.5,36.6,30.35,NNE,22,1.7,-999.0,61,-99.99,,,0.00,Acu-Link.com,2013-05-03 07:32:00,
2013-05-03 03:47:00,48.7,36.7,30.36,NNE,22,3.2,-999.0,63,-99.99,,,0.00,Acu-Link.com,2013-05-03 07:47:00,
2013-05-03 04:02:00,48.0,36.8,30.36,NNW,337,2.7,-999.0,65,-99.99,,,0.00,Acu-Link.com,2013-05-03 08:02:00,
2013-05-03 04:18:00,47.8,36.6,30.36,NNE,22,2.2,-999.0,65,-99.99,,,0.00,Acu-Link.com,2013-05-03 08:18:00,
2013-05-03 04:33:00,47.5,37.1,30.37,North,0,1.7,-999.0,67,-99.99,,,0.00,Acu-Link.com,2013-05-03 08:33:00,
2013-05-03 04:48:00,46.9,37.3,30.37,ENE,67,2.7,-999.0,69,-99.99,,,0.00,Acu-Link.com,2013-05-03 08:48:00,
2013-05-03 05:03:00,46.2,37.7,30.39,NE,45,1.7,-999.0,72,-99.99,,,0.00,Acu-Link.com,2013-05-03 09:03:00,
2013-05-03 05:18:00,45.7,37.9,30.39,North,0,1.1,-999.0,74,-99.99,,,0.00,Acu-Link.com,2013-05-03 09:18:00,
2013-05-03 05:33:00,46.4,38.2,30.40,NNE,22,1.7,-999.0,73,-99.99,,,0.00,Acu-Link.com,2013-05-03 09:33:00,
2013-05-03 05:49:00,46.8,38.6,30.40,NW,315,2.7,-999.0,73,-99.99,,,0.00,Acu-Link.com,2013-05-03 09:49:00,
2013-05-03 06:04:00,46.8,38.6,30.40,NE,45,2.7,-999.0,73,-99.99,,,0.00,Acu-Link.com,2013-05-03 10:04:00,
2013-05-03 06:19:00,46.9,38.7,30.40,NNW,337,1.7,-999.0,73,-99.99,,,0.00,Acu-Link.com,2013-05-03 10:19:00,
2013-05-03 06:35:00,47.1,38.9,30.41,NNE,22,3.2,-999.0,73,-99.99,,,0.00,Acu-Link.com,2013-05-03 10:35:00,
2013-05-03 06:50:00,47.8,39.2,30.41,North,0,2.2,-999.0,72,-99.99,,,0.00,Acu-Link.com,2013-05-03 10:50:00,
2013-05-03 07:05:00,49.5,39.8,30.42,SW,225,1.1,-999.0,69,-99.99,,,0.00,Acu-Link.com,2013-05-03 11:05:00,
2013-05-03 07:21:00,50.2,40.4,30.41,NNE,22,3.2,-999.0,69,-99.99,,,0.00,Acu-Link.com,2013-05-03 11:21:00,
2013-05-03 07:36:00,50.4,40.6,30.41,North,0,4.2,-999.0,69,-99.99,,,0.00,Acu-Link.com,2013-05-03 11:36:00,
2013-05-03 07:51:00,51.6,41.0,30.41,ENE,67,2.7,-999.0,67,-99.99,,,0.00,Acu-Link.com,2013-05-03 11:51:00,
2013-05-03 08:06:00,53.2,40.9,30.41,NNE,22,2.2,-999.0,63,-99.99,,,0.00,Acu-Link.com,2013-05-03 12:06:00,
2013-05-03 08:21:00,54.7,41.1,30.41,ENE,67,3.2,-999.0,60,-99.99,,,0.00,Acu-Link.com,2013-05-03 12:21:00,
2013-05-03 08:37:00,55.0,40.0,30.41,NNE,22,3.7,-999.0,57,-99.99,,,0.00,Acu-Link.com,2013-05-03 12:37:00,
2013-05-03 08:52:00,55.0,39.1,30.41,NNE,22,4.2,-999.0,55,-99.99,,,0.00,Acu-Link.com,2013-05-03 12:52:00,
2013-05-03 09:07:00,55.4,40.4,30.41,NNE,22,6.3,-999.0,57,-99.99,,,0.00,Acu-Link.com,2013-05-03 13:07:00,
2013-05-03 09:22:00,56.3,40.8,30.41,NE,45,3.7,-999.0,56,-99.99,,,0.00,Acu-Link.com,2013-05-03 13:22:00,
2013-05-03 09:37:00,56.5,40.5,30.40,SSW,202,2.2,-999.0,55,-99.99,,,0.00,Acu-Link.com,2013-05-03 13:37:00,
2013-05-03 09:53:00,57.0,41.0,30.40,North,0,3.7,-999.0,55,-99.99,,,0.00,Acu-Link.com,2013-05-03 13:53:00,
2013-05-03 10:08:00,59.9,42.2,30.40,NNE,22,2.7,-999.0,52,-99.99,,,0.00,Acu-Link.com,2013-05-03 14:08:00,
2013-05-03 10:23:00,59.5,40.8,30.40,ESE,112,5.3,-999.0,50,-99.99,,,0.00,Acu-Link.com,2013-05-03 14:23:00,
2013-05-03 10:38:00,61.3,40.9,30.39,NNE,22,2.7,-999.0,47,-99.99,,,0.00,Acu-Link.com,2013-05-03 14:38:00,
2013-05-03 10:54:00,59.5,39.8,30.39,NNW,337,4.7,-999.0,48,-99.99,,,0.00,Acu-Link.com,2013-05-03 14:54:00,
2013-05-03 11:09:00,61.3,40.9,30.38,NNE,22,3.7,-999.0,47,-99.99,,,0.00,Acu-Link.com,2013-05-03 15:09:00,
2013-05-03 11:24:00,60.8,41.0,30.38,NNE,22,5.3,-999.0,48,-99.99,,,0.00,Acu-Link.com,2013-05-03 15:24:00,
2013-05-03 11:39:00,61.0,40.6,30.37,North,0,5.8,-999.0,47,-99.99,,,0.00,Acu-Link.com,2013-05-03 15:39:00,
2013-05-03 11:54:00,61.3,40.9,30.37,NNE,22,5.8,-999.0,47,-99.99,,,0.00,Acu-Link.com,2013-05-03 15:54:00,
2013-05-03 12:09:00,62.2,41.7,30.36,NNE,22,9.4,-999.0,47,-99.99,,,0.00,Acu-Link.com,2013-05-03 16:09:00,
2013-05-03 12:25:00,63.3,42.2,30.36,NNE,22,2.7,-999.0,46,-99.99,,,0.00,Acu-Link.com,2013-05-03 16:25:00,
2013-05-03 12:40:00,64.0,41.6,30.35,NNW,337,3.2,-999.0,44,-99.99,,,0.00,Acu-Link.com,2013-05-03 16:40:00,
2013-05-03 12:55:00,64.9,43.0,30.35,ENE,67,5.8,-999.0,45,-99.99,,,0.00,Acu-Link.com,2013-05-03 16:55:00,
2013-05-03 13:10:00,64.9,42.5,30.34,NE,45,4.2,-999.0,44,-99.99,,,0.00,Acu-Link.com,2013-05-03 17:10:00,
2013-05-03 13:26:00,63.7,42.0,30.33,NW,315,3.2,-999.0,45,-99.99,,,0.00,Acu-Link.com,2013-05-03 17:26:00,
2013-05-03 13:41:00,64.4,42.6,30.33,ESE,112,4.2,-999.0,45,-99.99,,,0.00,Acu-Link.com,2013-05-03 17:41:00,
2013-05-03 13:56:00,64.0,47.0,30.33,ESE,112,5.8,-999.0,54,-99.99,,,0.00,Acu-Link.com,2013-05-03 17:56:00,
2013-05-03 14:12:00,63.1,47.1,30.32,South,180,1.7,-999.0,56,-99.99,,,0.00,Acu-Link.com,2013-05-03 18:12:00,
2013-05-03 14:27:00,62.8,46.4,30.32,ESE,112,4.2,-999.0,55,-99.99,,,0.00,Acu-Link.com,2013-05-03 18:27:00,
2013-05-03 14:42:00,64.2,47.7,30.31,NNE,22,2.2,-999.0,55,-99.99,,,0.00,Acu-Link.com,2013-05-03 18:42:00,
2013-05-03 14:57:00,62.8,47.3,30.31,SSW,202,3.2,-999.0,57,-99.99,,,0.00,Acu-Link.com,2013-05-03 18:57:00,
2013-05-03 15:12:00,63.1,48.1,30.31,WSW,247,4.7,-999.0,58,-99.99,,,0.00,Acu-Link.com,2013-05-03 19:12:00,
2013-05-03 15:27:00,59.5,46.9,30.31,SW,225,7.3,-999.0,63,-99.99,,,0.00,Acu-Link.com,2013-05-03 19:27:00,
2013-05-03 15:43:00,55.8,47.3,30.31,SSE,157,7.3,-999.0,73,-99.99,,,0.00,Acu-Link.com,2013-05-03 19:43:00,
2013-05-03 15:58:00,56.1,47.6,30.29,South,180,4.2,-999.0,73,-99.99,,,0.00,Acu-Link.com,2013-05-03 19:58:00,
2013-05-03 16:13:00,55.4,47.3,30.29,SSE,157,7.8,-999.0,74,-99.99,,,0.00,Acu-Link.com,2013-05-03 20:13:00,
2013-05-03 16:28:00,54.9,47.1,30.30,ESE,112,4.7,-999.0,75,-99.99,,,0.00,Acu-Link.com,2013-05-03 20:28:00,
2013-05-03 16:44:00,54.1,46.7,30.30,South,180,5.8,-999.0,76,-99.99,,,0.00,Acu-Link.com,2013-05-03 20:44:00,
2013-05-03 16:59:00,54.1,46.7,30.30,SE,135,5.8,-999.0,76,-99.99,,,0.00,Acu-Link.com,2013-05-03 20:59:00,
2013-05-03 17:14:00,53.2,46.5,30.29,South,180,6.3,-999.0,78,-99.99,,,0.00,Acu-Link.com,2013-05-03 21:14:00,
2013-05-03 17:30:00,53.8,46.4,30.30,South,180,3.2,-999.0,76,-99.99,,,0.00,Acu-Link.com,2013-05-03 21:30:00,
2013-05-03 17:45:00,55.0,46.9,30.30,ENE,67,4.2,-999.0,74,-99.99,,,0.00,Acu-Link.com,2013-05-03 21:45:00,
2013-05-03 18:00:00,55.2,47.4,30.30,South,180,3.2,-999.0,75,-99.99,,,0.00,Acu-Link.com,2013-05-03 22:00:00,
2013-05-03 18:16:00,54.7,46.9,30.30,South,180,4.7,-999.0,75,-99.99,,,0.00,Acu-Link.com,2013-05-03 22:16:00,
2013-05-03 18:31:00,54.1,47.1,30.30,SSE,157,2.7,-999.0,77,-99.99,,,0.00,Acu-Link.com,2013-05-03 22:31:00,
2013-05-03 18:47:00,52.5,46.5,30.30,SE,135,2.7,-999.0,80,-99.99,,,0.00,Acu-Link.com,2013-05-03 22:47:00,
2013-05-03 19:02:00,51.1,46.4,30.31,South,180,1.7,-999.0,84,-99.99,,,0.00,Acu-Link.com,2013-05-03 23:02:00,
2013-05-03 19:17:00,50.7,46.0,30.30,ESE,112,2.2,-999.0,84,-99.99,,,0.00,Acu-Link.com,2013-05-03 23:17:00,
2013-05-03 19:32:00,50.2,46.2,30.30,South,180,2.7,-999.0,86,-99.99,,,0.00,Acu-Link.com,2013-05-03 23:32:00,
2013-05-03 19:48:00,49.8,45.8,30.31,South,180,1.1,-999.0,86,-99.99,,,0.00,Acu-Link.com,2013-05-03 23:48:00,
2013-05-03 20:03:00,49.5,45.8,30.31,SE,135,0.0,-999.0,87,-99.99,,,0.00,Acu-Link.com,2013-05-04 00:03:00,
2013-05-03 20:19:00,48.6,45.2,30.31,NNE,22,0.0,-999.0,88,-99.99,,,0.00,Acu-Link.com,2013-05-04 00:19:00,
2013-05-03 20:34:00,48.6,45.2,30.31,West,270,0.0,-999.0,88,-99.99,,,0.00,Acu-Link.com,2013-05-04 00:34:00,
2013-05-03 20:49:00,47.7,44.6,30.31,West,270,0.0,-999.0,89,-99.99,,,0.00,Acu-Link.com,2013-05-04 00:49:00,
2013-05-03 21:04:00,47.3,44.2,30.31,West,270,0.0,-999.0,89,-99.99,,,0.00,Acu-Link.com,2013-05-04 01:04:00,
2013-05-03 21:20:00,46.8,44.0,30.32,WSW,247,0.0,-999.0,90,-99.99,,,0.00,Acu-Link.com,2013-05-04 01:20:00,
2013-05-03 21:35:00,46.4,43.6,30.32,NW,315,0.0,-999.0,90,-99.99,,,0.00,Acu-Link.com,2013-05-04 01:35:00,
2013-05-03 21:50:00,46.0,43.5,30.32,SSW,202,0.0,-999.0,91,-99.99,,,0.00,Acu-Link.com,2013-05-04 01:50:00,
2013-05-03 22:06:00,45.3,42.8,30.32,WNW,292,0.0,-999.0,91,-99.99,,,0.00,Acu-Link.com,2013-05-04 02:06:00,
2013-05-03 22:21:00,45.1,43.2,30.31,South,180,0.0,-999.0,93,-99.99,,,0.00,Acu-Link.com,2013-05-04 02:21:00,
2013-05-03 22:37:00,45.0,43.1,30.31,WSW,247,0.0,-999.0,93,-99.99,,,0.00,Acu-Link.com,2013-05-04 02:37:00,
2013-05-03 22:52:00,44.4,42.8,30.31,SSE,157,0.0,-999.0,94,-99.99,,,0.00,Acu-Link.com,2013-05-04 02:52:00,
2013-05-03 23:07:00,44.2,42.9,30.30,WSW,247,0.0,-999.0,95,-99.99,,,0.00,Acu-Link.com,2013-05-04 03:07:00,
2013-05-03 23:23:00,43.9,42.3,30.31,SW,225,0.0,-999.0,94,-99.99,,,0.00,Acu-Link.com,2013-05-04 03:23:00,
2013-05-03 23:38:00,43.5,42.2,30.30,SW,225,0.0,-999.0,95,-99.99,,,0.00,Acu-Link.com,2013-05-04 03:38:00,
2013-05-03 23:53:00,43.2,41.9,30.30,SW,225,0.0,-999.0,95,-99.99,,,0.00,Acu-Link.com,2013-05-04 03:53:00,